createdAt,value
2022-12-16T00:01:35.879Z,-3.80
2022-12-16T00:04:10.007Z,-3.80
2022-12-16T00:06:37.996Z,-3.80
2022-12-16T00:09:07.417Z,-3.80
2022-12-16T00:11:37.202Z,-3.80
2022-12-16T00:14:05.574Z,-3.80
2022-12-16T00:16:34.410Z,-3.80
2022-12-16T00:19:02.770Z,-3.80
2022-12-16T00:21:32.466Z,-3.80
2022-12-16T00:24:00.531Z,-3.80
2022-12-16T00:26:30.170Z,-3.80
2022-12-16T00:28:59.371Z,-3.70
2022-12-16T00:31:27.800Z,-3.80
2022-12-16T00:33:58.150Z,-3.80
2022-12-16T00:36:26.449Z,-3.70
2022-12-16T00:38:55.983Z,-3.70
2022-12-16T00:41:24.262Z,-3.70
2022-12-16T00:43:52.426Z,-3.70
2022-12-16T00:46:21.123Z,-3.70
2022-12-16T00:48:51.913Z,-3.70
2022-12-16T00:51:20.242Z,-3.70
2022-12-16T00:53:48.552Z,-3.70
2022-12-16T00:56:18.704Z,-3.70
2022-12-16T00:58:47.775Z,-3.70
2022-12-16T01:01:15.904Z,-3.70
2022-12-16T01:03:43.872Z,-3.70
2022-12-16T01:06:13.016Z,-3.70
2022-12-16T01:08:51.177Z,-3.70
2022-12-16T01:11:21.831Z,-3.70
2022-12-16T01:13:52.054Z,-3.70
2022-12-16T01:16:22.118Z,-3.80
2022-12-16T01:18:51.213Z,-3.80
2022-12-16T01:21:19.170Z,-3.80
2022-12-16T01:23:48.526Z,-3.70
2022-12-16T01:26:17.531Z,-3.70
2022-12-16T01:28:49.409Z,-3.70
2022-12-16T01:31:18.443Z,-3.80
2022-12-16T01:33:47.918Z,-3.80
2022-12-16T01:36:16.487Z,-3.80
2022-12-16T01:38:45.394Z,-3.80
2022-12-16T01:41:14.219Z,-3.80
2022-12-16T01:43:43.645Z,-3.80
2022-12-16T01:46:17.001Z,-3.90
2022-12-16T01:48:48.103Z,-4.00
2022-12-16T01:51:19.354Z,-4.00
2022-12-16T01:53:49.999Z,-4.00
2022-12-16T01:56:20.427Z,-4.10
2022-12-16T01:58:48.750Z,-4.10
2022-12-16T02:01:19.278Z,-4.10
2022-12-16T02:04:05.648Z,-4.20
2022-12-16T02:06:34.624Z,-4.20
2022-12-16T02:09:06.385Z,-4.20
2022-12-16T02:11:44.586Z,-4.30
2022-12-16T02:14:24.032Z,-4.30
2022-12-16T02:16:56.973Z,-4.30
2022-12-16T02:19:41.775Z,-4.40
2022-12-16T02:22:14.638Z,-4.30
2022-12-16T02:24:51.482Z,-4.30
2022-12-16T02:27:43.602Z,-4.40
2022-12-16T02:30:35.754Z,-4.40
2022-12-16T02:33:11.223Z,-4.40
2022-12-16T02:35:42.401Z,-4.50
2022-12-16T02:38:15.813Z,-4.50
2022-12-16T02:40:45.326Z,-4.50
2022-12-16T02:43:16.832Z,-4.50
2022-12-16T02:45:45.311Z,-4.60
2022-12-16T02:48:14.962Z,-4.60
2022-12-16T02:50:45.909Z,-4.60
2022-12-16T02:53:14.754Z,-4.60
2022-12-16T02:55:50.406Z,-4.60
2022-12-16T02:58:20.741Z,-4.60
2022-12-16T03:00:52.842Z,-4.60
2022-12-16T03:03:25.363Z,-4.60
2022-12-16T03:05:54.460Z,-4.60
2022-12-16T03:08:25.994Z,-4.60
2022-12-16T03:10:56.233Z,-4.60
2022-12-16T03:13:24.884Z,-4.60
2022-12-16T03:15:55.192Z,-4.60
2022-12-16T03:18:25.582Z,-4.60
2022-12-16T03:20:55.971Z,-4.70
2022-12-16T03:23:27.171Z,-4.60
2022-12-16T03:25:58.665Z,-4.60
2022-12-16T03:28:31.804Z,-4.60
2022-12-16T03:31:06.616Z,-4.70
2022-12-16T03:33:39.822Z,-4.70
2022-12-16T03:36:11.126Z,-4.70
2022-12-16T03:38:40.020Z,-4.70
2022-12-16T03:41:09.030Z,-4.70
2022-12-16T03:43:37.924Z,-4.70
2022-12-16T03:46:08.019Z,-4.80
2022-12-16T03:48:39.101Z,-4.80
2022-12-16T03:51:07.908Z,-4.80
2022-12-16T03:53:36.426Z,-4.80
2022-12-16T03:56:05.187Z,-4.80
2022-12-16T03:58:35.376Z,-4.90
2022-12-16T04:01:03.738Z,-4.90
2022-12-16T04:03:32.296Z,-4.90
2022-12-16T04:06:02.657Z,-4.90
2022-12-16T04:08:31.345Z,-5.00
2022-12-16T04:11:17.216Z,-5.00
2022-12-16T04:14:03.327Z,-5.10
2022-12-16T04:16:49.343Z,-5.10
2022-12-16T04:19:38.110Z,-5.20
2022-12-16T04:22:29.932Z,-5.20
2022-12-16T04:24:59.295Z,-5.20
2022-12-16T04:27:27.859Z,-5.10
2022-12-16T04:30:14.187Z,-5.10
2022-12-16T04:33:00.326Z,-5.10
2022-12-16T04:35:46.530Z,-5.10
2022-12-16T04:38:33.979Z,-5.10
2022-12-16T04:41:19.788Z,-5.10
2022-12-16T04:44:06.598Z,-5.10
2022-12-16T04:46:52.586Z,-5.10
2022-12-16T04:49:37.940Z,-5.10
2022-12-16T04:52:23.926Z,-5.00
2022-12-16T04:55:11.335Z,-5.00
2022-12-16T04:57:56.652Z,-5.00
2022-12-16T05:00:42.716Z,-5.10
2022-12-16T05:03:36.653Z,-5.00
2022-12-16T05:06:22.742Z,-5.10
2022-12-16T05:09:08.535Z,-5.20
2022-12-16T05:11:56.339Z,-5.10
2022-12-16T05:14:42.232Z,-5.10
2022-12-16T05:17:28.069Z,-5.20
2022-12-16T05:20:13.589Z,-5.20
2022-12-16T05:22:59.213Z,-5.40
2022-12-16T05:25:45.303Z,-5.40
2022-12-16T05:28:33.801Z,-5.50
2022-12-16T05:31:19.454Z,-5.60
2022-12-16T05:34:05.351Z,-5.60
2022-12-16T05:36:51.320Z,-5.60
2022-12-16T05:39:36.993Z,-5.60
2022-12-16T05:42:24.735Z,-5.60
2022-12-16T05:45:12.077Z,-5.60
2022-12-16T05:47:58.952Z,-5.70
2022-12-16T05:50:44.997Z,-5.70
2022-12-16T05:53:31.638Z,-5.70
2022-12-16T05:56:16.744Z,-5.70
2022-12-16T05:59:02.468Z,-5.70
2022-12-16T06:01:50.290Z,-5.60
2022-12-16T06:04:35.905Z,-5.70
2022-12-16T06:07:21.400Z,-5.80
2022-12-16T06:10:06.883Z,-5.80
2022-12-16T06:12:55.835Z,-5.80
2022-12-16T06:15:41.201Z,-5.80
2022-12-16T06:18:27.799Z,-5.90
2022-12-16T06:21:14.913Z,-5.90
2022-12-16T06:24:00.676Z,-5.90
2022-12-16T06:26:46.306Z,-6.00
2022-12-16T06:29:44.749Z,-6.10
2022-12-16T06:32:30.498Z,-6.10
2022-12-16T06:35:17.841Z,-6.20
2022-12-16T06:38:05.673Z,-6.20
2022-12-16T06:40:51.183Z,-6.30
2022-12-16T06:43:40.846Z,-6.40
2022-12-16T06:46:26.445Z,-6.40
2022-12-16T06:49:12.359Z,-6.30
2022-12-16T06:51:59.169Z,-6.30
2022-12-16T06:54:45.097Z,-6.10
2022-12-16T06:57:31.902Z,-6.10
2022-12-16T07:00:17.197Z,-6.20
2022-12-16T07:03:05.036Z,-6.30
2022-12-16T07:05:59.706Z,-6.40
2022-12-16T07:08:48.624Z,-6.30
2022-12-16T07:11:38.101Z,-6.30
2022-12-16T07:14:23.735Z,-6.40
2022-12-16T07:17:13.741Z,-6.30
2022-12-16T07:20:03.795Z,-6.30
2022-12-16T07:22:55.580Z,-6.40
2022-12-16T07:25:48.601Z,-6.40
2022-12-16T07:28:34.640Z,-6.40
2022-12-16T07:31:20.566Z,-6.40
2022-12-16T07:34:06.284Z,-6.40
2022-12-16T07:36:54.510Z,-6.40
2022-12-16T07:39:40.199Z,-6.50
2022-12-16T07:42:27.351Z,-6.40
2022-12-16T07:45:12.991Z,-6.30
2022-12-16T07:48:05.069Z,-6.20
2022-12-16T07:50:50.766Z,-6.00
2022-12-16T07:53:37.512Z,-5.60
2022-12-16T07:56:23.986Z,-5.00
2022-12-16T07:59:12.047Z,-4.10
2022-12-16T08:01:57.938Z,-3.60
2022-12-16T08:04:43.903Z,-3.10
2022-12-16T08:07:29.711Z,-2.30
2022-12-16T08:10:16.659Z,-1.80
2022-12-16T08:13:02.755Z,-1.10
2022-12-16T08:15:50.200Z,-0.70
2022-12-16T08:18:36.262Z,-0.10
2022-12-16T08:21:22.355Z,0.70
2022-12-16T08:24:08.106Z,1.40
2022-12-16T08:26:53.914Z,1.90
2022-12-16T08:29:45.665Z,2.10
2022-12-16T08:32:33.004Z,2.50
2022-12-16T08:35:19.524Z,3.20
2022-12-16T08:38:08.999Z,3.80
2022-12-16T08:41:00.112Z,4.40
2022-12-16T08:43:46.053Z,5.10
2022-12-16T08:46:32.167Z,5.70
2022-12-16T08:49:19.414Z,6.20
2022-12-16T08:52:05.232Z,6.40
2022-12-16T08:54:51.186Z,7.00
2022-12-16T08:57:37.652Z,8.00
2022-12-16T09:00:25.255Z,8.90
2022-12-16T09:03:11.843Z,9.80
2022-12-16T09:05:59.545Z,10.50
2022-12-16T09:08:45.108Z,11.20
2022-12-16T09:11:31.384Z,12.00
2022-12-16T09:14:16.939Z,12.80
2022-12-16T09:17:02.931Z,13.20
2022-12-16T09:19:48.843Z,13.60
2022-12-16T09:22:36.443Z,13.90
2022-12-16T09:25:22.370Z,14.20
2022-12-16T09:28:07.934Z,14.30
2022-12-16T09:30:54.508Z,14.70
2022-12-16T09:33:42.063Z,15.20
2022-12-16T09:36:28.138Z,15.60
2022-12-16T09:39:15.913Z,15.80
2022-12-16T09:42:04.267Z,16.30
2022-12-16T09:44:55.956Z,16.90
2022-12-16T09:47:45.053Z,17.30
2022-12-16T09:50:37.952Z,17.70
2022-12-16T09:53:25.650Z,17.80
2022-12-16T09:56:13.601Z,18.00
2022-12-16T09:59:01.934Z,18.30
2022-12-16T10:01:46.196Z,18.40
2022-12-16T10:04:32.320Z,18.50
2022-12-16T10:07:19.283Z,18.60
2022-12-16T10:10:10.289Z,18.70
2022-12-16T10:13:01.246Z,18.60
2022-12-16T10:15:50.630Z,18.40
2022-12-16T10:18:42.366Z,18.20
2022-12-16T10:21:29.618Z,18.60
2022-12-16T10:24:19.753Z,18.60
2022-12-16T10:27:10.883Z,18.30
2022-12-16T10:29:59.684Z,17.70
2022-12-16T10:32:48.090Z,17.00
2022-12-16T10:35:38.094Z,16.60
2022-12-16T10:38:26.120Z,16.00
2022-12-16T10:41:11.117Z,15.00
2022-12-16T10:43:58.401Z,14.90
2022-12-16T10:46:51.379Z,14.70
2022-12-16T10:49:38.192Z,14.30
2022-12-16T10:52:24.556Z,14.30
2022-12-16T10:55:13.626Z,14.00
2022-12-16T10:58:05.933Z,12.70
2022-12-16T11:00:58.973Z,12.30
2022-12-16T11:03:47.511Z,12.50
2022-12-16T11:06:35.521Z,13.00
2022-12-16T11:09:32.573Z,12.80
2022-12-16T11:12:32.587Z,13.50
2022-12-16T11:15:29.270Z,13.80
2022-12-16T11:18:20.867Z,14.00
2022-12-16T11:21:23.164Z,14.00
2022-12-16T11:24:22.869Z,14.10
2022-12-16T11:27:12.384Z,14.00
2022-12-16T11:30:12.047Z,14.10
2022-12-16T11:32:58.371Z,14.50
2022-12-16T11:35:45.442Z,13.80
2022-12-16T11:38:35.552Z,13.30
2022-12-16T11:41:24.277Z,12.80
2022-12-16T11:44:11.756Z,13.10
2022-12-16T11:46:57.948Z,13.00
2022-12-16T11:49:45.678Z,13.00
2022-12-16T11:52:37.476Z,13.00
2022-12-16T11:56:03.320Z,13.60
2022-12-16T11:58:50.303Z,13.60
2022-12-16T12:01:43.316Z,13.50
2022-12-16T12:04:32.034Z,13.70
2022-12-16T12:07:44.870Z,13.60
2022-12-16T12:10:45.951Z,13.20
2022-12-16T12:13:46.277Z,13.10
2022-12-16T12:16:35.931Z,12.90
2022-12-16T12:19:25.982Z,12.70
2022-12-16T12:22:16.498Z,12.90
2022-12-16T12:25:05.988Z,13.00
2022-12-16T12:27:55.175Z,13.10
2022-12-16T12:30:49.236Z,13.30
2022-12-16T12:33:39.257Z,13.50
2022-12-16T12:36:34.520Z,13.40
2022-12-16T12:39:29.264Z,13.30
2022-12-16T12:42:21.787Z,13.30
2022-12-16T12:45:15.402Z,13.00
2022-12-16T12:48:03.345Z,13.00
2022-12-16T12:50:54.453Z,13.50
2022-12-16T12:53:48.344Z,13.20
2022-12-16T12:56:36.944Z,13.10
2022-12-16T12:59:26.973Z,13.60
2022-12-16T13:02:15.016Z,13.40
2022-12-16T13:05:01.126Z,13.50
2022-12-16T13:07:46.600Z,13.50
2022-12-16T13:10:44.330Z,13.30
2022-12-16T13:13:40.949Z,12.70
2022-12-16T13:16:41.443Z,12.50
2022-12-16T13:19:54.533Z,12.40
2022-12-16T13:22:50.744Z,12.50
2022-12-16T13:26:00.495Z,12.00
2022-12-16T13:28:48.454Z,12.10
2022-12-16T13:31:36.144Z,12.10
2022-12-16T13:34:26.843Z,12.10
2022-12-16T13:37:19.177Z,12.10
2022-12-16T13:40:21.650Z,12.00
2022-12-16T13:43:11.554Z,11.70
2022-12-16T13:46:08.129Z,11.60
2022-12-16T13:48:56.071Z,11.40
2022-12-16T13:52:00.348Z,11.40
2022-12-16T13:54:50.284Z,11.40
2022-12-16T13:57:39.411Z,11.20
2022-12-16T14:00:36.548Z,10.90
2022-12-16T14:03:24.224Z,10.90
2022-12-16T14:06:13.524Z,10.90
2022-12-16T14:09:02.700Z,10.70
2022-12-16T14:11:55.089Z,10.20
2022-12-16T14:14:45.021Z,9.90
2022-12-16T14:17:32.693Z,9.60
2022-12-16T14:20:19.987Z,9.50
2022-12-16T14:23:10.677Z,9.50
2022-12-16T14:25:57.492Z,9.20
2022-12-16T14:28:45.487Z,9.00
2022-12-16T14:31:40.544Z,8.60
2022-12-16T14:34:32.028Z,8.30
2022-12-16T14:37:23.800Z,8.00
2022-12-16T14:40:12.576Z,7.30
2022-12-16T14:43:01.204Z,6.70
2022-12-16T14:45:48.674Z,5.70
2022-12-16T14:48:49.668Z,4.90
2022-12-16T14:51:41.297Z,4.30
2022-12-16T14:54:40.399Z,3.70
2022-12-16T14:57:30.027Z,3.10
2022-12-16T15:00:29.316Z,2.60
2022-12-16T15:03:18.645Z,2.30
2022-12-16T15:06:09.293Z,2.00
2022-12-16T15:08:57.923Z,1.70
2022-12-16T15:11:44.605Z,1.50
2022-12-16T15:14:34.069Z,1.10
2022-12-16T15:17:32.738Z,0.80
2022-12-16T15:20:18.389Z,0.60
2022-12-16T15:23:07.367Z,0.40
2022-12-16T15:26:02.166Z,0.20
2022-12-16T15:28:56.519Z,0.10
2022-12-16T15:31:45.999Z,-0.10
2022-12-16T15:34:45.869Z,-0.20
2022-12-16T15:37:36.655Z,-0.40
2022-12-16T15:40:27.339Z,-0.50
2022-12-16T15:43:13.151Z,-0.60
2022-12-16T15:46:07.072Z,-0.70
2022-12-16T15:48:53.166Z,-0.80
2022-12-16T15:51:43.461Z,-0.90
2022-12-16T15:54:34.034Z,-1.00
2022-12-16T15:57:21.771Z,-1.10
2022-12-16T16:00:16.338Z,-1.20
2022-12-16T16:03:06.991Z,-1.30
2022-12-16T16:05:55.432Z,-1.40
2022-12-16T16:08:41.035Z,-1.50
2022-12-16T16:11:31.353Z,-1.60
2022-12-16T16:17:23.052Z,-1.60
2022-12-16T16:20:13.577Z,-1.60
2022-12-16T16:23:04.560Z,-1.70
2022-12-16T16:25:50.764Z,-1.70
2022-12-16T16:28:36.335Z,-1.80
2022-12-16T16:31:24.532Z,-1.80
2022-12-16T16:34:10.116Z,-1.80
2022-12-16T16:36:56.851Z,-1.90
2022-12-16T16:39:42.952Z,-1.90
2022-12-16T16:42:28.702Z,-2.00
2022-12-16T16:45:14.426Z,-2.00
2022-12-16T16:48:02.957Z,-2.00
2022-12-16T16:50:49.233Z,-2.00
2022-12-16T16:53:36.024Z,-2.00
2022-12-16T16:56:22.477Z,-2.10
2022-12-16T16:59:08.358Z,-2.00
2022-12-16T17:01:54.514Z,-2.10
2022-12-16T17:04:42.033Z,-2.20
2022-12-16T17:07:35.807Z,-2.20
2022-12-16T17:10:21.697Z,-2.30
2022-12-16T17:13:09.852Z,-2.30
2022-12-16T17:15:56.178Z,-2.30
2022-12-16T17:18:46.682Z,-2.30
2022-12-16T17:21:44.973Z,-2.30
2022-12-16T17:24:35.526Z,-2.40
2022-12-16T17:27:25.895Z,-2.40
2022-12-16T17:30:12.679Z,-2.40
2022-12-16T17:33:00.882Z,-2.50
2022-12-16T17:35:46.596Z,-2.60
2022-12-16T17:38:34.835Z,-2.70
2022-12-16T17:41:22.872Z,-2.70
2022-12-16T17:44:11.211Z,-2.70
2022-12-16T17:46:58.656Z,-2.70
2022-12-16T17:49:44.881Z,-2.70
2022-12-16T17:52:30.939Z,-2.80
2022-12-16T17:55:18.042Z,-2.80
2022-12-16T17:58:03.640Z,-2.80
2022-12-16T18:00:51.945Z,-2.80
2022-12-16T18:03:39.660Z,-2.90
2022-12-16T18:06:26.631Z,-2.90
2022-12-16T18:09:13.763Z,-2.90
2022-12-16T18:12:01.483Z,-2.90
2022-12-16T18:14:47.746Z,-2.90
2022-12-16T18:17:33.467Z,-2.90
2022-12-16T18:20:19.472Z,-3.00
2022-12-16T18:23:05.227Z,-3.00
2022-12-16T18:25:51.941Z,-3.00
2022-12-16T18:28:42.028Z,-3.00
2022-12-16T18:31:28.271Z,-3.00
2022-12-16T18:34:13.863Z,-3.10
2022-12-16T18:37:00.021Z,-3.10
2022-12-16T18:39:45.638Z,-3.10
2022-12-16T18:42:30.901Z,-3.20
2022-12-16T18:45:17.827Z,-3.20
2022-12-16T18:48:03.095Z,-3.20
2022-12-16T18:50:56.169Z,-3.30
2022-12-16T18:53:42.217Z,-3.20
2022-12-16T18:56:28.421Z,-3.40
2022-12-16T18:59:14.435Z,-3.50
2022-12-16T19:02:02.146Z,-3.50
2022-12-16T19:04:49.520Z,-3.50
2022-12-16T19:07:34.934Z,-3.50
2022-12-16T19:10:21.128Z,-3.60
2022-12-16T19:13:06.774Z,-3.60
2022-12-16T19:15:52.780Z,-3.70
2022-12-16T19:18:40.925Z,-3.80
2022-12-16T19:21:28.094Z,-3.80
2022-12-16T19:24:13.650Z,-3.90
2022-12-16T19:26:58.702Z,-3.90
2022-12-16T19:29:44.619Z,-4.00
2022-12-16T19:32:30.653Z,-4.00
2022-12-16T19:35:17.175Z,-4.00
2022-12-16T19:38:03.112Z,-4.10
2022-12-16T19:40:49.096Z,-4.00
2022-12-16T19:43:35.004Z,-4.10
2022-12-16T19:46:20.391Z,-4.10
2022-12-16T19:49:06.011Z,-4.10
2022-12-16T19:51:53.345Z,-4.20
2022-12-16T19:54:41.761Z,-4.30
2022-12-16T19:57:29.004Z,-4.40
2022-12-16T20:00:14.815Z,-4.60
2022-12-16T20:03:01.114Z,-4.70
2022-12-16T20:05:47.381Z,-4.70
2022-12-16T20:08:34.966Z,-4.70
2022-12-16T20:11:23.276Z,-4.80
2022-12-16T20:14:10.511Z,-4.90
2022-12-16T20:16:56.686Z,-4.90
2022-12-16T20:19:44.865Z,-4.90
2022-12-16T20:22:30.512Z,-5.00
2022-12-16T20:25:17.454Z,-4.90
2022-12-16T20:28:03.491Z,-4.90
2022-12-16T20:30:49.395Z,-4.80
2022-12-16T20:33:35.295Z,-4.90
2022-12-16T20:36:22.588Z,-4.90
2022-12-16T20:39:08.009Z,-5.00
2022-12-16T20:41:56.393Z,-5.00
2022-12-16T20:44:42.222Z,-5.10
2022-12-16T20:47:28.308Z,-5.20
2022-12-16T20:50:14.342Z,-5.20
2022-12-16T20:53:00.739Z,-5.30
2022-12-16T20:55:46.281Z,-5.40
2022-12-16T20:58:36.667Z,-5.40
2022-12-16T21:01:23.165Z,-5.50
2022-12-16T21:04:09.545Z,-5.60
2022-12-16T21:06:56.191Z,-5.60
2022-12-16T21:09:42.230Z,-5.60
2022-12-16T21:12:28.456Z,-5.60
2022-12-16T21:15:17.014Z,-5.70
2022-12-16T21:18:02.653Z,-5.80
2022-12-16T21:20:48.391Z,-5.90
2022-12-16T21:23:34.127Z,-6.00
2022-12-16T21:26:30.165Z,-6.10
2022-12-16T21:29:17.174Z,-6.20
2022-12-16T21:32:04.572Z,-6.20
2022-12-16T21:34:51.892Z,-6.20
2022-12-16T21:37:38.414Z,-6.20
2022-12-16T21:40:24.685Z,-6.30
2022-12-16T21:43:10.167Z,-6.20
2022-12-16T21:45:56.108Z,-6.10
2022-12-16T21:48:46.479Z,-6.10
2022-12-16T21:51:32.133Z,-6.10
2022-12-16T21:54:17.829Z,-6.00
2022-12-16T21:57:03.361Z,-6.10
2022-12-16T21:59:48.932Z,-6.10
2022-12-16T22:02:37.068Z,-6.00
2022-12-16T22:05:28.765Z,-6.00
2022-12-16T22:08:14.472Z,-6.10
2022-12-16T22:11:00.219Z,-6.10
2022-12-16T22:13:50.120Z,-6.10
2022-12-16T22:16:35.732Z,-6.20
2022-12-16T22:19:21.145Z,-6.30
2022-12-16T22:22:09.448Z,-6.30
2022-12-16T22:24:56.884Z,-6.30
2022-12-16T22:27:42.352Z,-6.20
2022-12-16T22:30:28.693Z,-6.20
2022-12-16T22:33:14.299Z,-6.10
2022-12-16T22:35:59.804Z,-6.20
2022-12-16T22:38:49.446Z,-6.30
2022-12-16T22:41:35.599Z,-6.40
2022-12-16T22:44:21.578Z,-6.40
2022-12-16T22:47:07.036Z,-6.50
2022-12-16T22:49:55.970Z,-6.50
2022-12-16T22:52:41.732Z,-6.60
2022-12-16T22:55:33.249Z,-6.60
2022-12-16T22:58:24.552Z,-6.60
2022-12-16T23:01:10.238Z,-6.60
2022-12-16T23:03:56.902Z,-6.60
2022-12-16T23:06:43.038Z,-6.60
2022-12-16T23:09:32.669Z,-6.70
2022-12-16T23:12:21.189Z,-6.80
2022-12-16T23:15:07.493Z,-6.90
2022-12-16T23:17:53.285Z,-7.00
2022-12-16T23:20:44.321Z,-7.10
2022-12-16T23:23:34.642Z,-7.10
2022-12-16T23:26:23.077Z,-7.10
2022-12-16T23:29:10.902Z,-7.20
2022-12-16T23:31:57.148Z,-7.20
2022-12-16T23:34:46.137Z,-7.10
2022-12-16T23:37:31.744Z,-7.10
2022-12-16T23:40:18.453Z,-7.10
2022-12-16T23:43:07.991Z,-7.10
2022-12-16T23:45:58.403Z,-7.10
2022-12-16T23:48:43.984Z,-7.00
2022-12-16T23:51:29.228Z,-7.00
2022-12-16T23:54:15.665Z,-7.00
2022-12-16T23:57:01.714Z,-7.00
2022-12-16T23:59:47.621Z,-7.00
